sensor_id;sensor_type;location;lat;lon;timestamp;P1;durP1;ratioP1;P2;durP2;ratioP2
28772;SDS011;15925;51.222;5.678;2023-02-28T00:00:22;3.20;;;1.55;;
28772;SDS011;15925;51.222;5.678;2023-02-28T00:02:48;4.70;;;2.63;;
28772;SDS011;15925;51.222;5.678;2023-02-28T00:05:16;2.10;;;1.45;;
28772;SDS011;15925;51.222;5.678;2023-02-28T00:07:43;1.75;;;1.65;;
28772;SDS011;15925;51.222;5.678;2023-02-28T00:10:10;4.15;;;2.25;;
28772;SDS011;15925;51.222;5.678;2023-02-28T00:12:38;2.10;;;1.60;;
28772;SDS011;15925;51.222;5.678;2023-02-28T00:15:08;3.43;;;1.63;;
28772;SDS011;15925;51.222;5.678;2023-02-28T00:17:34;3.05;;;2.25;;
28772;SDS011;15925;51.222;5.678;2023-02-28T00:20:01;2.20;;;1.95;;
28772;SDS011;15925;51.222;5.678;2023-02-28T00:22:28;3.65;;;2.17;;
28772;SDS011;15925;51.222;5.678;2023-02-28T00:24:54;11.27;;;1.87;;
28772;SDS011;15925;51.222;5.678;2023-02-28T00:27:20;2.00;;;1.37;;
28772;SDS011;15925;51.222;5.678;2023-02-28T00:29:48;4.00;;;2.17;;
28772;SDS011;15925;51.222;5.678;2023-02-28T00:32:14;8.93;;;2.85;;
28772;SDS011;15925;51.222;5.678;2023-02-28T00:34:40;2.08;;;1.35;;
28772;SDS011;15925;51.222;5.678;2023-02-28T00:37:07;2.03;;;1.50;;
28772;SDS011;15925;51.222;5.678;2023-02-28T00:39:37;1.85;;;1.42;;
28772;SDS011;15925;51.222;5.678;2023-02-28T00:44:30;3.45;;;1.92;;
28772;SDS011;15925;51.222;5.678;2023-02-28T00:46:56;2.03;;;1.75;;
28772;SDS011;15925;51.222;5.678;2023-02-28T00:49:23;3.72;;;1.92;;
28772;SDS011;15925;51.222;5.678;2023-02-28T00:51:50;3.80;;;1.15;;
28772;SDS011;15925;51.222;5.678;2023-02-28T00:54:18;3.45;;;1.83;;
28772;SDS011;15925;51.222;5.678;2023-02-28T00:56:46;6.35;;;1.85;;
28772;SDS011;15925;51.222;5.678;2023-02-28T00:59:12;9.55;;;2.47;;
28772;SDS011;15925;51.222;5.678;2023-02-28T01:01:39;5.40;;;1.70;;
28772;SDS011;15925;51.222;5.678;2023-02-28T01:04:06;2.05;;;1.48;;
28772;SDS011;15925;51.222;5.678;2023-02-28T01:06:32;4.75;;;2.13;;
28772;SDS011;15925;51.222;5.678;2023-02-28T01:08:59;2.22;;;1.77;;
28772;SDS011;15925;51.222;5.678;2023-02-28T01:11:25;8.30;;;2.17;;
28772;SDS011;15925;51.222;5.678;2023-02-28T01:13:52;3.08;;;1.95;;
28772;SDS011;15925;51.222;5.678;2023-02-28T01:16:18;3.08;;;1.88;;
28772;SDS011;15925;51.222;5.678;2023-02-28T01:18:44;3.88;;;2.00;;
28772;SDS011;15925;51.222;5.678;2023-02-28T01:21:12;4.38;;;2.42;;
28772;SDS011;15925;51.222;5.678;2023-02-28T01:23:40;7.97;;;2.88;;
28772;SDS011;15925;51.222;5.678;2023-02-28T01:26:06;4.55;;;2.45;;
28772;SDS011;15925;51.222;5.678;2023-02-28T01:28:34;3.80;;;2.13;;
28772;SDS011;15925;51.222;5.678;2023-02-28T01:30:59;6.47;;;2.38;;
28772;SDS011;15925;51.222;5.678;2023-02-28T01:33:25;7.85;;;1.90;;
28772;SDS011;15925;51.222;5.678;2023-02-28T01:35:58;2.17;;;1.23;;
28772;SDS011;15925;51.222;5.678;2023-02-28T01:38:29;3.60;;;2.03;;
28772;SDS011;15925;51.222;5.678;2023-02-28T01:40:55;2.75;;;1.75;;
28772;SDS011;15925;51.222;5.678;2023-02-28T01:45:50;3.22;;;2.15;;
28772;SDS011;15925;51.222;5.678;2023-02-28T01:48:16;4.95;;;3.13;;
28772;SDS011;15925;51.222;5.678;2023-02-28T01:50:45;10.45;;;1.80;;
28772;SDS011;15925;51.222;5.678;2023-02-28T01:53:14;17.38;;;2.15;;
28772;SDS011;15925;51.222;5.678;2023-02-28T01:55:45;8.60;;;2.45;;
28772;SDS011;15925;51.222;5.678;2023-02-28T01:58:13;4.72;;;2.30;;
28772;SDS011;15925;51.222;5.678;2023-02-28T02:00:39;3.22;;;2.08;;
28772;SDS011;15925;51.222;5.678;2023-02-28T02:03:10;1.70;;;1.42;;
28772;SDS011;15925;51.222;5.678;2023-02-28T02:05:39;3.78;;;2.03;;
28772;SDS011;15925;51.222;5.678;2023-02-28T02:08:07;8.10;;;2.03;;
28772;SDS011;15925;51.222;5.678;2023-02-28T02:10:45;4.82;;;2.15;;
28772;SDS011;15925;51.222;5.678;2023-02-28T02:24:11;2.40;;;2.00;;
28772;SDS011;15925;51.222;5.678;2023-02-28T02:32:12;5.32;;;2.10;;
28772;SDS011;15925;51.222;5.678;2023-02-28T02:37:48;5.78;;;2.97;;
28772;SDS011;15925;51.222;5.678;2023-02-28T02:40:25;6.55;;;3.40;;
28772;SDS011;15925;51.222;5.678;2023-02-28T02:43:13;6.38;;;2.90;;
28772;SDS011;15925;51.222;5.678;2023-02-28T02:45:52;2.85;;;1.85;;
28772;SDS011;15925;51.222;5.678;2023-02-28T02:48:25;2.95;;;2.05;;
28772;SDS011;15925;51.222;5.678;2023-02-28T02:50:57;3.75;;;1.80;;
28772;SDS011;15925;51.222;5.678;2023-02-28T02:53:37;7.30;;;2.33;;
28772;SDS011;15925;51.222;5.678;2023-02-28T02:56:07;3.58;;;1.73;;
28772;SDS011;15925;51.222;5.678;2023-02-28T02:58:35;6.38;;;2.22;;
28772;SDS011;15925;51.222;5.678;2023-02-28T03:01:10;3.88;;;2.65;;
28772;SDS011;15925;51.222;5.678;2023-02-28T03:03:40;2.55;;;1.70;;
28772;SDS011;15925;51.222;5.678;2023-02-28T03:06:07;6.07;;;2.30;;
28772;SDS011;15925;51.222;5.678;2023-02-28T03:08:35;1.23;;;1.13;;
28772;SDS011;15925;51.222;5.678;2023-02-28T03:11:03;6.47;;;2.08;;
28772;SDS011;15925;51.222;5.678;2023-02-28T03:13:45;5.03;;;1.88;;
28772;SDS011;15925;51.222;5.678;2023-02-28T03:16:32;3.22;;;2.05;;
28772;SDS011;15925;51.222;5.678;2023-02-28T03:21:38;13.30;;;2.78;;
28772;SDS011;15925;51.222;5.678;2023-02-28T03:24:15;2.55;;;1.38;;
28772;SDS011;15925;51.222;5.678;2023-02-28T03:26:52;7.07;;;2.42;;
28772;SDS011;15925;51.222;5.678;2023-02-28T03:29:28;8.02;;;2.80;;
28772;SDS011;15925;51.222;5.678;2023-02-28T03:32:08;14.27;;;2.20;;
28772;SDS011;15925;51.222;5.678;2023-02-28T03:34:45;5.03;;;2.08;;
28772;SDS011;15925;51.222;5.678;2023-02-28T03:37:33;4.53;;;2.75;;
28772;SDS011;15925;51.222;5.678;2023-02-28T03:40:06;3.10;;;1.88;;
28772;SDS011;15925;51.222;5.678;2023-02-28T03:42:38;16.05;;;2.35;;
28772;SDS011;15925;51.222;5.678;2023-02-28T03:45:09;8.27;;;1.77;;
28772;SDS011;15925;51.222;5.678;2023-02-28T03:47:40;4.57;;;2.72;;
28772;SDS011;15925;51.222;5.678;2023-02-28T03:50:29;11.57;;;2.92;;
28772;SDS011;15925;51.222;5.678;2023-02-28T03:53:06;5.47;;;2.15;;
28772;SDS011;15925;51.222;5.678;2023-02-28T03:55:43;5.85;;;2.22;;
28772;SDS011;15925;51.222;5.678;2023-02-28T03:58:15;19.05;;;2.55;;
28772;SDS011;15925;51.222;5.678;2023-02-28T04:00:48;3.25;;;1.58;;
28772;SDS011;15925;51.222;5.678;2023-02-28T04:03:19;6.03;;;1.88;;
28772;SDS011;15925;51.222;5.678;2023-02-28T04:05:54;4.13;;;1.88;;
28772;SDS011;15925;51.222;5.678;2023-02-28T04:08:22;12.07;;;2.05;;
28772;SDS011;15925;51.222;5.678;2023-02-28T04:10:50;5.65;;;2.17;;
28772;SDS011;15925;51.222;5.678;2023-02-28T04:13:22;3.15;;;1.63;;
28772;SDS011;15925;51.222;5.678;2023-02-28T04:15:48;3.80;;;1.90;;
28772;SDS011;15925;51.222;5.678;2023-02-28T04:18:14;5.03;;;1.40;;
28772;SDS011;15925;51.222;5.678;2023-02-28T04:20:40;2.63;;;1.93;;
28772;SDS011;15925;51.222;5.678;2023-02-28T04:23:05;5.15;;;2.83;;
28772;SDS011;15925;51.222;5.678;2023-02-28T04:25:31;4.10;;;2.33;;
28772;SDS011;15925;51.222;5.678;2023-02-28T04:27:57;3.93;;;2.17;;
28772;SDS011;15925;51.222;5.678;2023-02-28T04:30:23;1.92;;;1.75;;
28772;SDS011;15925;51.222;5.678;2023-02-28T04:32:48;2.80;;;1.63;;
28772;SDS011;15925;51.222;5.678;2023-02-28T04:35:14;2.13;;;1.93;;
28772;SDS011;15925;51.222;5.678;2023-02-28T04:37:40;4.10;;;2.47;;
28772;SDS011;15925;51.222;5.678;2023-02-28T04:40:06;3.38;;;1.48;;
28772;SDS011;15925;51.222;5.678;2023-02-28T04:42:33;13.60;;;2.70;;
28772;SDS011;15925;51.222;5.678;2023-02-28T04:45:03;3.72;;;1.92;;
28772;SDS011;15925;51.222;5.678;2023-02-28T04:47:30;2.67;;;1.60;;
28772;SDS011;15925;51.222;5.678;2023-02-28T04:49:55;4.00;;;2.08;;
28772;SDS011;15925;51.222;5.678;2023-02-28T04:52:21;5.43;;;2.45;;
28772;SDS011;15925;51.222;5.678;2023-02-28T04:54:47;5.72;;;2.13;;
28772;SDS011;15925;51.222;5.678;2023-02-28T04:57:14;4.55;;;2.72;;
28772;SDS011;15925;51.222;5.678;2023-02-28T04:59:40;4.05;;;2.10;;
28772;SDS011;15925;51.222;5.678;2023-02-28T05:02:06;4.72;;;2.08;;
28772;SDS011;15925;51.222;5.678;2023-02-28T05:04:32;1.88;;;1.52;;
28772;SDS011;15925;51.222;5.678;2023-02-28T05:06:59;16.05;;;3.13;;
28772;SDS011;15925;51.222;5.678;2023-02-28T05:09:26;4.82;;;2.25;;
28772;SDS011;15925;51.222;5.678;2023-02-28T05:11:53;4.97;;;2.53;;
28772;SDS011;15925;51.222;5.678;2023-02-28T05:14:18;6.83;;;2.63;;
28772;SDS011;15925;51.222;5.678;2023-02-28T05:16:44;4.83;;;2.00;;
28772;SDS011;15925;51.222;5.678;2023-02-28T05:19:10;2.78;;;1.80;;
28772;SDS011;15925;51.222;5.678;2023-02-28T05:21:37;3.00;;;1.98;;
28772;SDS011;15925;51.222;5.678;2023-02-28T05:24:06;6.05;;;2.40;;
28772;SDS011;15925;51.222;5.678;2023-02-28T05:26:37;3.03;;;1.90;;
28772;SDS011;15925;51.222;5.678;2023-02-28T05:29:04;1.90;;;1.20;;
28772;SDS011;15925;51.222;5.678;2023-02-28T05:31:30;5.40;;;2.38;;
28772;SDS011;15925;51.222;5.678;2023-02-28T05:33:56;3.90;;;3.10;;
28772;SDS011;15925;51.222;5.678;2023-02-28T05:36:22;4.18;;;2.97;;
28772;SDS011;15925;51.222;5.678;2023-02-28T05:38:49;3.15;;;1.67;;
28772;SDS011;15925;51.222;5.678;2023-02-28T05:41:16;3.97;;;1.70;;
28772;SDS011;15925;51.222;5.678;2023-02-28T05:43:42;3.08;;;1.63;;
28772;SDS011;15925;51.222;5.678;2023-02-28T05:46:10;7.33;;;2.90;;
28772;SDS011;15925;51.222;5.678;2023-02-28T05:48:37;2.92;;;1.98;;
28772;SDS011;15925;51.222;5.678;2023-02-28T05:51:04;3.15;;;2.42;;
28772;SDS011;15925;51.222;5.678;2023-02-28T05:53:30;9.10;;;2.75;;
28772;SDS011;15925;51.222;5.678;2023-02-28T05:55:56;2.40;;;1.50;;
28772;SDS011;15925;51.222;5.678;2023-02-28T05:58:22;7.90;;;2.58;;
28772;SDS011;15925;51.222;5.678;2023-02-28T06:00:50;18.20;;;2.22;;
28772;SDS011;15925;51.222;5.678;2023-02-28T06:03:16;5.38;;;1.90;;
28772;SDS011;15925;51.222;5.678;2023-02-28T06:05:42;5.57;;;2.63;;
28772;SDS011;15925;51.222;5.678;2023-02-28T06:08:08;3.30;;;2.17;;
28772;SDS011;15925;51.222;5.678;2023-02-28T06:10:34;5.60;;;2.25;;
28772;SDS011;15925;51.222;5.678;2023-02-28T06:13:00;5.88;;;2.42;;
28772;SDS011;15925;51.222;5.678;2023-02-28T06:15:27;4.72;;;2.75;;
28772;SDS011;15925;51.222;5.678;2023-02-28T06:17:54;2.50;;;1.75;;
28772;SDS011;15925;51.222;5.678;2023-02-28T06:20:21;3.30;;;2.05;;
28772;SDS011;15925;51.222;5.678;2023-02-28T06:22:48;3.63;;;1.73;;
28772;SDS011;15925;51.222;5.678;2023-02-28T06:25:15;2.80;;;1.73;;
28772;SDS011;15925;51.222;5.678;2023-02-28T06:27:42;3.67;;;2.60;;
28772;SDS011;15925;51.222;5.678;2023-02-28T06:30:08;7.47;;;2.83;;
28772;SDS011;15925;51.222;5.678;2023-02-28T06:32:35;8.10;;;2.40;;
28772;SDS011;15925;51.222;5.678;2023-02-28T06:35:01;2.78;;;2.38;;
28772;SDS011;15925;51.222;5.678;2023-02-28T06:37:27;3.08;;;1.92;;
28772;SDS011;15925;51.222;5.678;2023-02-28T06:39:56;2.00;;;1.40;;
28772;SDS011;15925;51.222;5.678;2023-02-28T06:42:23;3.22;;;2.05;;
28772;SDS011;15925;51.222;5.678;2023-02-28T06:44:56;1.45;;;1.35;;
28772;SDS011;15925;51.222;5.678;2023-02-28T06:47:23;4.13;;;1.95;;
28772;SDS011;15925;51.222;5.678;2023-02-28T06:49:49;10.35;;;2.22;;
28772;SDS011;15925;51.222;5.678;2023-02-28T06:52:15;3.70;;;2.42;;
28772;SDS011;15925;51.222;5.678;2023-02-28T06:54:41;5.05;;;2.85;;
28772;SDS011;15925;51.222;5.678;2023-02-28T06:57:07;8.40;;;4.60;;
28772;SDS011;15925;51.222;5.678;2023-02-28T06:59:33;7.60;;;2.38;;
28772;SDS011;15925;51.222;5.678;2023-02-28T07:02:00;4.50;;;1.92;;
28772;SDS011;15925;51.222;5.678;2023-02-28T07:04:27;6.22;;;2.20;;
28772;SDS011;15925;51.222;5.678;2023-02-28T07:06:54;5.35;;;3.00;;
28772;SDS011;15925;51.222;5.678;2023-02-28T07:09:23;5.93;;;2.55;;
28772;SDS011;15925;51.222;5.678;2023-02-28T07:11:52;5.25;;;2.78;;
28772;SDS011;15925;51.222;5.678;2023-02-28T07:14:18;5.53;;;2.53;;
28772;SDS011;15925;51.222;5.678;2023-02-28T07:16:44;9.67;;;3.17;;
28772;SDS011;15925;51.222;5.678;2023-02-28T07:19:10;2.35;;;2.05;;
28772;SDS011;15925;51.222;5.678;2023-02-28T07:21:36;3.03;;;2.07;;
28772;SDS011;15925;51.222;5.678;2023-02-28T07:24:02;6.35;;;2.33;;
28772;SDS011;15925;51.222;5.678;2023-02-28T07:26:27;4.32;;;2.65;;
28772;SDS011;15925;51.222;5.678;2023-02-28T07:28:53;5.53;;;2.47;;
28772;SDS011;15925;51.222;5.678;2023-02-28T07:31:19;3.08;;;1.92;;
28772;SDS011;15925;51.222;5.678;2023-02-28T07:33:45;1.48;;;1.33;;
28772;SDS011;15925;51.222;5.678;2023-02-28T07:36:12;3.28;;;1.77;;
28772;SDS011;15925;51.222;5.678;2023-02-28T07:38:40;6.70;;;2.47;;
28772;SDS011;15925;51.222;5.678;2023-02-28T07:41:07;4.57;;;1.85;;
28772;SDS011;15925;51.222;5.678;2023-02-28T07:43:34;4.22;;;1.95;;
28772;SDS011;15925;51.222;5.678;2023-02-28T07:46:04;1.77;;;1.50;;
28772;SDS011;15925;51.222;5.678;2023-02-28T07:48:31;2.75;;;1.98;;
28772;SDS011;15925;51.222;5.678;2023-02-28T07:50:58;2.13;;;1.60;;
28772;SDS011;15925;51.222;5.678;2023-02-28T07:53:24;8.60;;;3.50;;
28772;SDS011;15925;51.222;5.678;2023-02-28T07:55:55;3.97;;;2.38;;
28772;SDS011;15925;51.222;5.678;2023-02-28T07:58:22;3.15;;;1.67;;
28772;SDS011;15925;51.222;5.678;2023-02-28T08:00:48;1.70;;;1.25;;
28772;SDS011;15925;51.222;5.678;2023-02-28T08:03:14;6.00;;;2.60;;
28772;SDS011;15925;51.222;5.678;2023-02-28T08:05:42;5.45;;;2.10;;
28772;SDS011;15925;51.222;5.678;2023-02-28T08:08:10;3.53;;;2.45;;
28772;SDS011;15925;51.222;5.678;2023-02-28T08:10:35;13.97;;;1.97;;
28772;SDS011;15925;51.222;5.678;2023-02-28T08:13:01;4.57;;;2.28;;
28772;SDS011;15925;51.222;5.678;2023-02-28T08:15:27;1.83;;;1.48;;
28772;SDS011;15925;51.222;5.678;2023-02-28T08:17:53;9.90;;;2.23;;
28772;SDS011;15925;51.222;5.678;2023-02-28T08:20:21;2.67;;;1.52;;
28772;SDS011;15925;51.222;5.678;2023-02-28T08:22:47;2.17;;;1.48;;
28772;SDS011;15925;51.222;5.678;2023-02-28T08:25:13;2.53;;;1.23;;
28772;SDS011;15925;51.222;5.678;2023-02-28T08:27:40;6.30;;;2.45;;
28772;SDS011;15925;51.222;5.678;2023-02-28T08:30:06;4.50;;;1.75;;
28772;SDS011;15925;51.222;5.678;2023-02-28T08:32:34;6.20;;;1.50;;
28772;SDS011;15925;51.222;5.678;2023-02-28T08:35:00;5.87;;;2.10;;
28772;SDS011;15925;51.222;5.678;2023-02-28T08:37:28;3.45;;;1.58;;
28772;SDS011;15925;51.222;5.678;2023-02-28T08:39:53;5.30;;;1.58;;
28772;SDS011;15925;51.222;5.678;2023-02-28T08:42:19;1.77;;;1.40;;
28772;SDS011;15925;51.222;5.678;2023-02-28T08:44:45;6.97;;;1.55;;
28772;SDS011;15925;51.222;5.678;2023-02-28T08:47:12;1.15;;;0.98;;
28772;SDS011;15925;51.222;5.678;2023-02-28T08:49:38;9.90;;;1.75;;
28772;SDS011;15925;51.222;5.678;2023-02-28T08:52:04;1.30;;;1.13;;
28772;SDS011;15925;51.222;5.678;2023-02-28T08:54:31;1.83;;;1.42;;
28772;SDS011;15925;51.222;5.678;2023-02-28T08:56:58;3.35;;;1.38;;
28772;SDS011;15925;51.222;5.678;2023-02-28T08:59:24;1.90;;;1.35;;
28772;SDS011;15925;51.222;5.678;2023-02-28T09:01:49;2.33;;;0.83;;
28772;SDS011;15925;51.222;5.678;2023-02-28T09:04:15;0.88;;;0.80;;
28772;SDS011;15925;51.222;5.678;2023-02-28T09:06:42;0.90;;;0.77;;
28772;SDS011;15925;51.222;5.678;2023-02-28T09:09:08;1.38;;;1.23;;
28772;SDS011;15925;51.222;5.678;2023-02-28T09:14:00;2.50;;;0.95;;
28772;SDS011;15925;51.222;5.678;2023-02-28T09:16:28;1.73;;;1.58;;
28772;SDS011;15925;51.222;5.678;2023-02-28T09:18:55;3.30;;;1.40;;
28772;SDS011;15925;51.222;5.678;2023-02-28T09:21:22;2.50;;;1.45;;
28772;SDS011;15925;51.222;5.678;2023-02-28T09:23:48;3.92;;;1.55;;
28772;SDS011;15925;51.222;5.678;2023-02-28T09:26:25;4.32;;;1.38;;
28772;SDS011;15925;51.222;5.678;2023-02-28T09:28:52;0.88;;;0.85;;
28772;SDS011;15925;51.222;5.678;2023-02-28T09:31:21;3.38;;;1.20;;
28772;SDS011;15925;51.222;5.678;2023-02-28T09:33:50;3.35;;;1.60;;
28772;SDS011;15925;51.222;5.678;2023-02-28T09:36:17;9.60;;;2.90;;
28772;SDS011;15925;51.222;5.678;2023-02-28T09:38:43;2.97;;;1.15;;
28772;SDS011;15925;51.222;5.678;2023-02-28T09:41:14;2.25;;;1.05;;
28772;SDS011;15925;51.222;5.678;2023-02-28T09:43:47;2.75;;;0.63;;
28772;SDS011;15925;51.222;5.678;2023-02-28T09:46:32;2.40;;;0.88;;
28772;SDS011;15925;51.222;5.678;2023-02-28T09:49:08;12.05;;;1.80;;
28772;SDS011;15925;51.222;5.678;2023-02-28T09:54:19;2.08;;;1.10;;
28772;SDS011;15925;51.222;5.678;2023-02-28T09:56:51;3.42;;;1.00;;
28772;SDS011;15925;51.222;5.678;2023-02-28T10:02:21;0.68;;;0.68;;
28772;SDS011;15925;51.222;5.678;2023-02-28T10:05:09;0.93;;;0.70;;
28772;SDS011;15925;51.222;5.678;2023-02-28T10:16:03;1.23;;;0.63;;
28772;SDS011;15925;51.222;5.678;2023-02-28T10:18:47;0.75;;;0.73;;
28772;SDS011;15925;51.222;5.678;2023-02-28T10:21:21;0.77;;;0.75;;
28772;SDS011;15925;51.222;5.678;2023-02-28T10:23:49;0.35;;;0.35;;
28772;SDS011;15925;51.222;5.678;2023-02-28T10:26:21;6.65;;;0.95;;
28772;SDS011;15925;51.222;5.678;2023-02-28T10:28:48;0.77;;;0.73;;
28772;SDS011;15925;51.222;5.678;2023-02-28T10:31:19;0.60;;;0.57;;
28772;SDS011;15925;51.222;5.678;2023-02-28T10:33:45;3.25;;;1.10;;
28772;SDS011;15925;51.222;5.678;2023-02-28T10:36:13;1.17;;;0.57;;
28772;SDS011;15925;51.222;5.678;2023-02-28T10:38:41;0.80;;;0.43;;
28772;SDS011;15925;51.222;5.678;2023-02-28T10:41:10;0.63;;;0.50;;
28772;SDS011;15925;51.222;5.678;2023-02-28T10:43:52;1.83;;;0.57;;
28772;SDS011;15925;51.222;5.678;2023-02-28T10:46:36;1.20;;;0.70;;
28772;SDS011;15925;51.222;5.678;2023-02-28T10:49:11;3.72;;;0.75;;
28772;SDS011;15925;51.222;5.678;2023-02-28T10:51:40;1.27;;;0.85;;
28772;SDS011;15925;51.222;5.678;2023-02-28T10:54:18;0.77;;;0.52;;
28772;SDS011;15925;51.222;5.678;2023-02-28T10:57:05;0.70;;;0.65;;
28772;SDS011;15925;51.222;5.678;2023-02-28T10:59:40;3.53;;;0.95;;
28772;SDS011;15925;51.222;5.678;2023-02-28T11:04:57;8.35;;;1.02;;
28772;SDS011;15925;51.222;5.678;2023-02-28T11:07:23;4.23;;;0.90;;
28772;SDS011;15925;51.222;5.678;2023-02-28T11:09:51;1.58;;;0.75;;
28772;SDS011;15925;51.222;5.678;2023-02-28T11:12:23;1.05;;;0.60;;
28772;SDS011;15925;51.222;5.678;2023-02-28T11:15:00;2.03;;;0.70;;
28772;SDS011;15925;51.222;5.678;2023-02-28T11:17:33;2.83;;;0.73;;
28772;SDS011;15925;51.222;5.678;2023-02-28T11:20:00;1.45;;;0.75;;
28772;SDS011;15925;51.222;5.678;2023-02-28T11:22:29;0.85;;;0.73;;
28772;SDS011;15925;51.222;5.678;2023-02-28T11:25:22;1.00;;;0.60;;
28772;SDS011;15925;51.222;5.678;2023-02-28T11:27:50;3.75;;;0.75;;
28772;SDS011;15925;51.222;5.678;2023-02-28T11:30:25;1.63;;;0.47;;
28772;SDS011;15925;51.222;5.678;2023-02-28T11:32:53;3.15;;;0.95;;
28772;SDS011;15925;51.222;5.678;2023-02-28T11:37:50;1.50;;;0.80;;
28772;SDS011;15925;51.222;5.678;2023-02-28T11:40:18;1.98;;;1.20;;
28772;SDS011;15925;51.222;5.678;2023-02-28T11:48:36;1.27;;;1.15;;
28772;SDS011;15925;51.222;5.678;2023-02-28T11:51:18;0.80;;;0.65;;
28772;SDS011;15925;51.222;5.678;2023-02-28T11:54:12;2.33;;;1.08;;
28772;SDS011;15925;51.222;5.678;2023-02-28T11:56:53;1.63;;;1.10;;
28772;SDS011;15925;51.222;5.678;2023-02-28T12:15:29;3.60;;;1.05;;
28772;SDS011;15925;51.222;5.678;2023-02-28T12:20:44;0.65;;;0.65;;
28772;SDS011;15925;51.222;5.678;2023-02-28T12:23:40;4.03;;;1.27;;
28772;SDS011;15925;51.222;5.678;2023-02-28T12:26:28;1.33;;;0.75;;
28772;SDS011;15925;51.222;5.678;2023-02-28T12:29:47;3.00;;;1.75;;
28772;SDS011;15925;51.222;5.678;2023-02-28T12:37:33;3.17;;;1.63;;
28772;SDS011;15925;51.222;5.678;2023-02-28T12:40:16;1.20;;;0.98;;
28772;SDS011;15925;51.222;5.678;2023-02-28T12:48:07;0.70;;;0.70;;
28772;SDS011;15925;51.222;5.678;2023-02-28T12:50:38;2.70;;;1.42;;
28772;SDS011;15925;51.222;5.678;2023-02-28T12:53:18;1.13;;;0.70;;
28772;SDS011;15925;51.222;5.678;2023-02-28T12:55:56;2.63;;;0.93;;
28772;SDS011;15925;51.222;5.678;2023-02-28T12:58:45;1.77;;;1.38;;
28772;SDS011;15925;51.222;5.678;2023-02-28T13:11:45;0.95;;;0.77;;
28772;SDS011;15925;51.222;5.678;2023-02-28T13:14:20;2.17;;;1.30;;
28772;SDS011;15925;51.222;5.678;2023-02-28T13:17:00;3.17;;;0.93;;
28772;SDS011;15925;51.222;5.678;2023-02-28T13:19:55;1.80;;;1.00;;
28772;SDS011;15925;51.222;5.678;2023-02-28T13:22:37;0.73;;;0.70;;
28772;SDS011;15925;51.222;5.678;2023-02-28T13:27:58;1.63;;;0.68;;
28772;SDS011;15925;51.222;5.678;2023-02-28T13:33:27;5.10;;;1.25;;
28772;SDS011;15925;51.222;5.678;2023-02-28T13:38:40;0.90;;;0.55;;
28772;SDS011;15925;51.222;5.678;2023-02-28T13:44:03;1.23;;;0.73;;
28772;SDS011;15925;51.222;5.678;2023-02-28T13:49:24;1.80;;;0.85;;
28772;SDS011;15925;51.222;5.678;2023-02-28T13:51:54;5.55;;;1.77;;
28772;SDS011;15925;51.222;5.678;2023-02-28T14:02:48;6.30;;;1.48;;
28772;SDS011;15925;51.222;5.678;2023-02-28T14:05:19;1.67;;;0.93;;
28772;SDS011;15925;51.222;5.678;2023-02-28T14:07:52;3.15;;;0.93;;
28772;SDS011;15925;51.222;5.678;2023-02-28T14:10:21;0.60;;;0.60;;
28772;SDS011;15925;51.222;5.678;2023-02-28T14:13:00;13.68;;;0.95;;
28772;SDS011;15925;51.222;5.678;2023-02-28T14:15:30;2.47;;;1.05;;
28772;SDS011;15925;51.222;5.678;2023-02-28T14:21:01;2.35;;;1.48;;
28772;SDS011;15925;51.222;5.678;2023-02-28T14:35:29;1.38;;;0.57;;
28772;SDS011;15925;51.222;5.678;2023-02-28T14:38:18;1.85;;;1.08;;
28772;SDS011;15925;51.222;5.678;2023-02-28T14:40:49;9.98;;;1.30;;
28772;SDS011;15925;51.222;5.678;2023-02-28T14:43:22;8.98;;;1.40;;
28772;SDS011;15925;51.222;5.678;2023-02-28T14:45:54;0.90;;;0.73;;
28772;SDS011;15925;51.222;5.678;2023-02-28T14:48:21;3.30;;;1.80;;
28772;SDS011;15925;51.222;5.678;2023-02-28T14:50:58;1.65;;;1.17;;
28772;SDS011;15925;51.222;5.678;2023-02-28T14:53:26;3.78;;;1.27;;
28772;SDS011;15925;51.222;5.678;2023-02-28T14:55:54;1.60;;;1.10;;
28772;SDS011;15925;51.222;5.678;2023-02-28T14:58:30;2.45;;;1.45;;
28772;SDS011;15925;51.222;5.678;2023-02-28T15:00:58;1.48;;;0.63;;
28772;SDS011;15925;51.222;5.678;2023-02-28T15:03:35;1.98;;;1.00;;
28772;SDS011;15925;51.222;5.678;2023-02-28T15:06:11;1.65;;;0.90;;
28772;SDS011;15925;51.222;5.678;2023-02-28T15:08:45;1.85;;;1.05;;
28772;SDS011;15925;51.222;5.678;2023-02-28T15:11:18;1.70;;;1.20;;
28772;SDS011;15925;51.222;5.678;2023-02-28T15:21:59;2.65;;;1.33;;
28772;SDS011;15925;51.222;5.678;2023-02-28T15:24:40;1.52;;;0.77;;
28772;SDS011;15925;51.222;5.678;2023-02-28T15:27:11;0.98;;;0.70;;
28772;SDS011;15925;51.222;5.678;2023-02-28T15:29:56;15.00;;;1.20;;
28772;SDS011;15925;51.222;5.678;2023-02-28T15:34:58;2.85;;;1.20;;
28772;SDS011;15925;51.222;5.678;2023-02-28T15:38:01;1.45;;;1.02;;
28772;SDS011;15925;51.222;5.678;2023-02-28T15:40:38;2.55;;;1.60;;
28772;SDS011;15925;51.222;5.678;2023-02-28T15:43:17;1.55;;;0.90;;
28772;SDS011;15925;51.222;5.678;2023-02-28T15:46:07;2.08;;;1.45;;
28772;SDS011;15925;51.222;5.678;2023-02-28T15:48:53;3.83;;;1.55;;
28772;SDS011;15925;51.222;5.678;2023-02-28T15:53:56;1.40;;;1.10;;
28772;SDS011;15925;51.222;5.678;2023-02-28T15:56:46;1.35;;;0.88;;
28772;SDS011;15925;51.222;5.678;2023-02-28T15:59:23;2.30;;;1.10;;
28772;SDS011;15925;51.222;5.678;2023-02-28T16:04:36;2.95;;;1.27;;
28772;SDS011;15925;51.222;5.678;2023-02-28T16:07:03;1.35;;;1.00;;
28772;SDS011;15925;51.222;5.678;2023-02-28T16:09:31;2.40;;;1.40;;
28772;SDS011;15925;51.222;5.678;2023-02-28T16:12:00;2.17;;;0.98;;
28772;SDS011;15925;51.222;5.678;2023-02-28T16:14:28;2.20;;;1.40;;
28772;SDS011;15925;51.222;5.678;2023-02-28T16:17:05;1.63;;;1.20;;
28772;SDS011;15925;51.222;5.678;2023-02-28T16:19:38;2.60;;;1.55;;
28772;SDS011;15925;51.222;5.678;2023-02-28T16:22:03;2.50;;;1.93;;
28772;SDS011;15925;51.222;5.678;2023-02-28T16:24:29;2.37;;;1.60;;
28772;SDS011;15925;51.222;5.678;2023-02-28T16:26:55;4.05;;;2.05;;
28772;SDS011;15925;51.222;5.678;2023-02-28T16:29:33;1.20;;;1.10;;
28772;SDS011;15925;51.222;5.678;2023-02-28T16:32:00;1.88;;;1.35;;
28772;SDS011;15925;51.222;5.678;2023-02-28T16:34:28;4.07;;;1.33;;
28772;SDS011;15925;51.222;5.678;2023-02-28T16:36:54;4.50;;;1.37;;
28772;SDS011;15925;51.222;5.678;2023-02-28T16:39:20;1.63;;;1.47;;
28772;SDS011;15925;51.222;5.678;2023-02-28T16:41:46;12.07;;;1.83;;
28772;SDS011;15925;51.222;5.678;2023-02-28T16:44:26;3.72;;;2.15;;
28772;SDS011;15925;51.222;5.678;2023-02-28T16:46:54;1.13;;;1.02;;
28772;SDS011;15925;51.222;5.678;2023-02-28T16:49:20;3.03;;;1.23;;
28772;SDS011;15925;51.222;5.678;2023-02-28T16:51:47;2.58;;;1.65;;
28772;SDS011;15925;51.222;5.678;2023-02-28T16:54:17;1.60;;;1.40;;
28772;SDS011;15925;51.222;5.678;2023-02-28T16:56:44;3.55;;;1.80;;
28772;SDS011;15925;51.222;5.678;2023-02-28T16:59:12;4.30;;;1.65;;
28772;SDS011;15925;51.222;5.678;2023-02-28T17:01:39;2.13;;;1.52;;
28772;SDS011;15925;51.222;5.678;2023-02-28T17:04:05;5.43;;;1.75;;
28772;SDS011;15925;51.222;5.678;2023-02-28T17:06:30;2.47;;;1.42;;
28772;SDS011;15925;51.222;5.678;2023-02-28T17:08:58;3.15;;;1.83;;
28772;SDS011;15925;51.222;5.678;2023-02-28T17:11:28;1.42;;;1.33;;
28772;SDS011;15925;51.222;5.678;2023-02-28T17:13:54;3.03;;;1.50;;
28772;SDS011;15925;51.222;5.678;2023-02-28T17:16:31;3.03;;;1.58;;
28772;SDS011;15925;51.222;5.678;2023-02-28T17:19:04;3.13;;;1.42;;
28772;SDS011;15925;51.222;5.678;2023-02-28T17:21:31;1.52;;;1.20;;
28772;SDS011;15925;51.222;5.678;2023-02-28T17:23:58;2.97;;;1.52;;
28772;SDS011;15925;51.222;5.678;2023-02-28T17:26:25;4.65;;;1.40;;
28772;SDS011;15925;51.222;5.678;2023-02-28T17:28:51;1.30;;;1.00;;
28772;SDS011;15925;51.222;5.678;2023-02-28T17:31:20;2.53;;;1.58;;
28772;SDS011;15925;51.222;5.678;2023-02-28T17:33:47;2.47;;;0.90;;